createdAt,value
2018-09-29T00:00:39.160Z,7.76
2018-09-29T00:01:39.147Z,7.63
2018-09-29T00:02:39.148Z,7.61
2018-09-29T00:03:39.123Z,7.60
2018-09-29T00:04:39.120Z,7.53
2018-09-29T00:05:39.111Z,7.56
2018-09-29T00:06:39.115Z,7.51
2018-09-29T00:07:39.096Z,7.36
2018-09-29T00:08:39.072Z,7.47
2018-09-29T00:09:40.712Z,7.50
2018-09-29T00:10:39.045Z,7.43
2018-09-29T00:11:39.039Z,7.42
2018-09-29T00:12:39.056Z,7.45
2018-09-29T00:13:39.016Z,7.43
2018-09-29T00:14:46.029Z,7.51
2018-09-29T00:15:38.994Z,7.51
2018-09-29T00:16:39.037Z,7.57
2018-09-29T00:17:38.971Z,7.38
2018-09-29T00:18:38.969Z,7.47
2018-09-29T00:19:45.970Z,7.36
2018-09-29T00:20:38.933Z,7.38
2018-09-29T00:21:38.929Z,7.31
2018-09-29T00:22:38.917Z,7.38
2018-09-29T00:23:38.916Z,7.36
2018-09-29T00:24:45.923Z,7.21
2018-09-29T00:25:38.878Z,7.18
2018-09-29T00:26:38.867Z,7.18
2018-09-29T00:27:38.855Z,7.14
2018-09-29T00:28:38.858Z,7.17
2018-09-29T00:29:38.833Z,7.13
2018-09-29T00:30:38.823Z,7.10
2018-09-29T00:31:38.812Z,7.05
2018-09-29T00:32:38.800Z,7.06
2018-09-29T00:33:38.805Z,7.02
2018-09-29T00:34:38.777Z,7.07
2018-09-29T00:35:38.775Z,6.97
2018-09-29T00:36:38.759Z,7.03
2018-09-29T00:37:38.746Z,6.92
2018-09-29T00:38:38.771Z,6.88
2018-09-29T00:39:38.724Z,6.92
2018-09-29T00:40:38.713Z,6.88
2018-09-29T00:41:38.701Z,6.81
2018-09-29T00:42:38.695Z,6.95
2018-09-29T00:43:38.705Z,6.95
2018-09-29T00:44:38.665Z,6.88
2018-09-29T00:45:38.659Z,6.88
2018-09-29T00:46:38.645Z,6.84
2018-09-29T00:47:38.635Z,6.75
2018-09-29T00:48:38.637Z,6.77
2018-09-29T00:49:38.616Z,6.79
2018-09-29T00:50:38.606Z,6.72
2018-09-29T00:51:38.589Z,6.70
2018-09-29T00:52:38.577Z,6.69
2018-09-29T00:53:38.579Z,6.64
2018-09-29T00:54:38.554Z,6.62
2018-09-29T00:55:38.543Z,6.51
2018-09-29T00:56:38.552Z,6.49
2018-09-29T00:57:38.526Z,6.46
2018-09-29T00:58:38.527Z,6.42
2018-09-29T00:59:38.502Z,6.36
2018-09-29T01:00:38.490Z,6.35
2018-09-29T01:01:38.480Z,6.33
2018-09-29T01:02:38.468Z,6.27
2018-09-29T01:03:38.483Z,6.27
2018-09-29T01:04:38.445Z,6.27
2018-09-29T01:05:38.434Z,6.16
2018-09-29T01:06:38.422Z,6.17
2018-09-29T01:07:38.411Z,6.26
2018-09-29T01:08:38.416Z,6.26
2018-09-29T01:09:38.390Z,6.16
2018-09-29T01:10:38.393Z,6.12
2018-09-29T01:11:38.370Z,6.22
2018-09-29T01:12:38.356Z,6.12
2018-09-29T01:13:38.369Z,6.12
2018-09-29T01:14:38.348Z,6.26
2018-09-29T01:15:38.323Z,6.20
2018-09-29T01:16:38.310Z,6.27
2018-09-29T01:17:38.317Z,6.33
2018-09-29T01:18:38.306Z,6.35
2018-09-29T01:19:38.278Z,6.26
2018-09-29T01:20:38.273Z,6.26
2018-09-29T01:21:38.257Z,6.33
2018-09-29T01:22:38.255Z,6.27
2018-09-29T01:23:38.264Z,6.28
2018-09-29T01:24:38.222Z,6.31
2018-09-29T01:25:38.210Z,6.19
2018-09-29T01:26:38.200Z,6.24
2018-09-29T01:27:38.193Z,6.24
2018-09-29T01:28:38.196Z,6.28
2018-09-29T01:29:46.839Z,6.30
2018-09-29T01:30:38.155Z,6.26
2018-09-29T01:31:38.145Z,6.22
2018-09-29T01:32:38.132Z,6.12
2018-09-29T01:33:38.121Z,6.09
2018-09-29T01:34:38.124Z,6.08
2018-09-29T01:35:38.099Z,6.08
2018-09-29T01:36:38.103Z,6.08
2018-09-29T01:37:38.077Z,6.16
2018-09-29T01:38:38.068Z,6.05
2018-09-29T01:39:38.087Z,6.11
2018-09-29T01:40:38.047Z,6.11
2018-09-29T01:41:38.036Z,6.07
2018-09-29T01:42:38.022Z,5.97
2018-09-29T01:43:38.014Z,5.94
2018-09-29T01:44:38.026Z,5.86
2018-09-29T01:45:37.988Z,5.84
2018-09-29T01:46:37.978Z,5.73
2018-09-29T01:47:37.965Z,5.75
2018-09-29T01:48:37.954Z,5.75
2018-09-29T01:49:37.956Z,5.75
2018-09-29T01:50:37.939Z,5.69
2018-09-29T01:51:37.921Z,5.69
2018-09-29T01:52:37.909Z,5.69
2018-09-29T01:53:37.939Z,5.73
2018-09-29T01:54:37.905Z,5.62
2018-09-29T01:55:37.885Z,5.64
2018-09-29T01:56:37.873Z,5.57
2018-09-29T01:57:37.855Z,5.64
2018-09-29T01:58:37.844Z,5.68
2018-09-29T01:59:37.849Z,5.62
2018-09-29T02:00:37.823Z,5.61
2018-09-29T02:01:37.816Z,5.71
2018-09-29T02:02:37.805Z,5.73
2018-09-29T02:03:37.788Z,5.83
2018-09-29T02:04:37.791Z,5.82
2018-09-29T02:05:37.767Z,5.80
2018-09-29T02:06:37.756Z,5.71
2018-09-29T02:07:37.744Z,5.75
2018-09-29T02:08:37.739Z,5.73
2018-09-29T02:09:37.734Z,5.69
2018-09-29T02:10:37.717Z,5.73
2018-09-29T02:11:37.698Z,5.72
2018-09-29T02:12:52.330Z,5.62
2018-09-29T02:13:37.676Z,5.59
2018-09-29T02:14:37.686Z,5.65
2018-09-29T02:15:37.658Z,5.64
2018-09-29T02:16:37.642Z,5.64
2018-09-29T02:17:37.635Z,5.54
2018-09-29T02:18:37.619Z,5.64
2018-09-29T02:19:37.625Z,5.66
2018-09-29T02:20:37.603Z,5.69
2018-09-29T02:21:37.587Z,5.71
2018-09-29T02:22:37.575Z,5.59
2018-09-29T02:23:37.565Z,5.66
2018-09-29T02:24:37.566Z,5.69
2018-09-29T02:25:37.544Z,5.69
2018-09-29T02:26:37.535Z,5.54
2018-09-29T02:27:37.521Z,5.64
2018-09-29T02:28:37.520Z,5.56
2018-09-29T02:29:44.550Z,5.64
2018-09-29T02:30:37.486Z,5.62
2018-09-29T02:31:37.475Z,5.64
2018-09-29T02:32:37.465Z,5.71
2018-09-29T02:33:37.453Z,5.57
2018-09-29T02:34:37.457Z,5.66
2018-09-29T02:35:37.432Z,5.65
2018-09-29T02:36:37.418Z,5.66
2018-09-29T02:37:37.408Z,5.66
2018-09-29T02:38:37.401Z,5.62
2018-09-29T02:39:37.409Z,5.65
2018-09-29T02:40:37.384Z,5.59
2018-09-29T02:41:37.389Z,5.62
2018-09-29T02:42:37.353Z,5.69
2018-09-29T02:43:37.342Z,5.66
2018-09-29T02:44:37.347Z,5.62
2018-09-29T02:45:37.333Z,5.57
2018-09-29T02:46:37.310Z,5.56
2018-09-29T02:47:37.298Z,5.56
2018-09-29T02:48:37.285Z,5.65
2018-09-29T02:49:37.294Z,5.56
2018-09-29T02:50:37.281Z,5.59
2018-09-29T02:51:37.254Z,5.69
2018-09-29T02:52:37.259Z,5.62
2018-09-29T02:53:37.231Z,5.54
2018-09-29T02:54:37.221Z,5.65
2018-09-29T02:55:37.230Z,5.64
2018-09-29T02:56:37.203Z,5.64
2018-09-29T02:57:37.186Z,5.62
2018-09-29T02:58:37.174Z,5.62
2018-09-29T02:59:37.163Z,5.66
2018-09-29T03:00:37.166Z,5.64
2018-09-29T03:01:37.149Z,5.66
2018-09-29T03:02:37.132Z,5.59
2018-09-29T03:03:37.120Z,5.65
2018-09-29T03:04:37.108Z,5.57
2018-09-29T03:05:37.113Z,5.62
2018-09-29T03:06:37.090Z,5.57
2018-09-29T03:07:37.081Z,5.64
2018-09-29T03:08:37.104Z,5.50
2018-09-29T03:09:37.052Z,5.56
2018-09-29T03:10:37.059Z,5.54
2018-09-29T03:11:37.038Z,5.48
2018-09-29T03:12:37.020Z,5.57
2018-09-29T03:13:37.009Z,5.46
2018-09-29T03:14:37.017Z,5.44
2018-09-29T03:15:37.004Z,5.47
2018-09-29T03:16:36.976Z,5.38
2018-09-29T03:17:36.964Z,5.38
2018-09-29T03:18:36.953Z,5.38
2018-09-29T03:19:36.943Z,5.46
2018-09-29T03:20:36.966Z,5.35
2018-09-29T03:21:36.924Z,5.38
2018-09-29T03:22:36.910Z,5.36
2018-09-29T03:23:36.902Z,5.29
2018-09-29T03:24:36.886Z,5.23
2018-09-29T03:25:36.895Z,5.25
2018-09-29T03:26:36.866Z,5.21
2018-09-29T03:27:36.895Z,5.20
2018-09-29T03:28:36.844Z,5.26
2018-09-29T03:29:43.864Z,5.21
2018-09-29T03:30:36.832Z,5.23
2018-09-29T03:31:36.852Z,5.21
2018-09-29T03:32:36.798Z,5.25
2018-09-29T03:33:36.785Z,5.26
2018-09-29T03:34:43.807Z,5.25
2018-09-29T03:35:36.781Z,5.25
2018-09-29T03:36:36.752Z,5.21
2018-09-29T03:37:36.743Z,5.18
2018-09-29T03:38:36.730Z,5.12
2018-09-29T03:39:36.720Z,5.07
2018-09-29T03:40:38.453Z,5.11
2018-09-29T03:41:36.696Z,5.02
2018-09-29T03:42:36.688Z,5.07
2018-09-29T03:43:36.684Z,5.12
2018-09-29T03:44:36.663Z,5.07
2018-09-29T03:45:36.679Z,5.04
2018-09-29T03:46:36.642Z,5.04
2018-09-29T03:47:36.631Z,5.02
2018-09-29T03:48:36.628Z,5.07
2018-09-29T03:49:36.609Z,4.97
2018-09-29T03:50:36.597Z,5.04
2018-09-29T03:51:36.607Z,4.92
2018-09-29T03:52:36.577Z,5.00
2018-09-29T03:53:36.637Z,4.96
2018-09-29T03:54:36.565Z,4.87
2018-09-29T03:55:36.542Z,4.78
2018-09-29T03:56:36.552Z,4.82
2018-09-29T03:57:36.521Z,4.92
2018-09-29T03:58:36.512Z,4.93
2018-09-29T03:59:36.497Z,4.96
2018-09-29T04:00:36.493Z,4.96
2018-09-29T04:01:36.492Z,4.99
2018-09-29T04:02:36.465Z,4.94
2018-09-29T04:03:36.452Z,4.87
2018-09-29T04:04:36.443Z,4.92
2018-09-29T04:05:36.437Z,4.77
2018-09-29T04:06:36.458Z,4.80
2018-09-29T04:07:36.408Z,4.80
2018-09-29T04:08:36.398Z,4.80
2018-09-29T04:09:36.390Z,4.74
2018-09-29T04:10:36.377Z,4.82
2018-09-29T04:11:36.364Z,4.80
2018-09-29T04:12:36.379Z,4.80
2018-09-29T04:13:36.343Z,4.74
2018-09-29T04:14:36.332Z,4.82
2018-09-29T04:15:36.322Z,4.77
2018-09-29T04:16:36.309Z,4.80
2018-09-29T04:17:36.312Z,4.77
2018-09-29T04:18:36.301Z,4.80
2018-09-29T04:19:36.310Z,4.75
2018-09-29T04:20:36.265Z,4.82
2018-09-29T04:21:36.258Z,4.75
2018-09-29T04:22:36.255Z,4.78
2018-09-29T04:23:36.238Z,4.89
2018-09-29T04:24:36.229Z,4.77
2018-09-29T04:25:36.211Z,4.90
2018-09-29T04:26:36.199Z,4.96
2018-09-29T04:27:36.202Z,4.93
2018-09-29T04:28:36.177Z,4.94
2018-09-29T04:29:36.165Z,4.92
2018-09-29T04:30:36.168Z,5.00
2018-09-29T04:31:36.143Z,4.99
2018-09-29T04:32:36.147Z,4.93
2018-09-29T04:33:36.120Z,4.97
2018-09-29T04:34:36.113Z,4.97
2018-09-29T04:35:36.098Z,4.96
2018-09-29T04:36:36.093Z,4.92
2018-09-29T04:37:36.105Z,5.00
2018-09-29T04:38:36.066Z,4.93
2018-09-29T04:39:36.054Z,4.92
2018-09-29T04:40:43.078Z,4.87
2018-09-29T04:41:36.031Z,4.75
2018-09-29T04:42:36.020Z,4.84
2018-09-29T04:43:36.025Z,4.73
2018-09-29T04:44:36.002Z,4.75
2018-09-29T04:45:35.986Z,4.73
2018-09-29T04:46:35.975Z,4.68
2018-09-29T04:47:35.966Z,4.63
2018-09-29T04:48:35.971Z,4.70
2018-09-29T04:49:35.953Z,4.63
2018-09-29T04:50:35.933Z,4.59
2018-09-29T04:51:35.951Z,4.68
2018-09-29T04:52:35.912Z,4.74
2018-09-29T04:53:35.911Z,4.82
2018-09-29T04:54:35.912Z,4.82
2018-09-29T04:55:35.876Z,4.84
2018-09-29T04:56:35.871Z,4.87
2018-09-29T04:57:35.857Z,4.82
2018-09-29T04:58:35.856Z,4.77
2018-09-29T04:59:35.843Z,4.86
2018-09-29T05:00:35.824Z,4.78
2018-09-29T05:01:35.811Z,4.94
2018-09-29T05:02:35.799Z,4.90
2018-09-29T05:03:35.807Z,4.89
2018-09-29T05:04:35.778Z,4.90
2018-09-29T05:05:35.766Z,4.87
2018-09-29T05:06:35.823Z,4.74
2018-09-29T05:07:35.748Z,4.75
2018-09-29T05:08:35.766Z,4.78
2018-09-29T05:09:35.724Z,4.82
2018-09-29T05:10:35.751Z,4.80
2018-09-29T05:11:35.699Z,4.71
2018-09-29T05:12:35.705Z,4.77
2018-09-29T05:13:35.687Z,4.73
2018-09-29T05:14:35.684Z,4.74
2018-09-29T05:15:35.667Z,4.77
2018-09-29T05:16:35.652Z,4.70
2018-09-29T05:17:35.635Z,4.66
2018-09-29T05:18:35.621Z,4.67
2018-09-29T05:19:35.623Z,4.74
2018-09-29T05:20:35.599Z,4.67
2018-09-29T05:21:35.595Z,4.75
2018-09-29T05:22:35.582Z,4.75
2018-09-29T05:23:35.568Z,4.77
2018-09-29T05:24:35.568Z,4.73
2018-09-29T05:25:35.546Z,4.80
2018-09-29T05:26:35.536Z,4.73
2018-09-29T05:27:35.529Z,4.67
2018-09-29T05:28:35.515Z,4.63
2018-09-29T05:29:35.515Z,4.60
2018-09-29T05:30:35.490Z,4.53
2018-09-29T05:31:35.478Z,4.52
2018-09-29T05:32:35.467Z,4.45
2018-09-29T05:33:35.474Z,4.56
2018-09-29T05:34:35.464Z,4.56
2018-09-29T05:35:35.433Z,4.55
2018-09-29T05:36:35.423Z,4.44
2018-09-29T05:37:35.414Z,4.62
2018-09-29T05:38:35.531Z,4.60
2018-09-29T05:39:35.437Z,4.60
2018-09-29T05:40:42.405Z,4.71
2018-09-29T05:41:35.367Z,4.55
2018-09-29T05:42:35.356Z,4.60
2018-09-29T05:43:35.344Z,4.60
2018-09-29T05:44:35.350Z,4.62
2018-09-29T05:45:35.324Z,4.58
2018-09-29T05:46:35.324Z,4.55
2018-09-29T05:47:35.313Z,4.53
2018-09-29T05:48:35.290Z,4.59
2018-09-29T05:49:35.308Z,4.66
2018-09-29T05:50:35.272Z,4.70
2018-09-29T05:51:35.272Z,4.73
2018-09-29T05:52:35.252Z,4.74
2018-09-29T05:53:35.234Z,4.73
2018-09-29T05:54:35.224Z,4.86
2018-09-29T05:55:35.234Z,4.82
2018-09-29T05:56:35.210Z,4.74
2018-09-29T05:57:35.190Z,4.78
2018-09-29T05:58:35.188Z,4.73
2018-09-29T05:59:35.169Z,4.89
2018-09-29T06:00:35.245Z,4.96
2018-09-29T06:01:35.146Z,4.86
2018-09-29T06:02:35.138Z,4.92
2018-09-29T06:03:35.123Z,4.97
2018-09-29T06:04:35.114Z,5.02
2018-09-29T06:05:35.203Z,5.07
2018-09-29T06:06:35.091Z,5.00
2018-09-29T06:07:35.268Z,4.99
2018-09-29T06:08:35.078Z,5.00
2018-09-29T06:09:35.058Z,5.07
2018-09-29T06:10:35.059Z,5.08
2018-09-29T06:11:35.035Z,5.04
2018-09-29T06:12:35.024Z,5.14
2018-09-29T06:13:35.013Z,5.07
2018-09-29T06:14:35.014Z,5.17
2018-09-29T06:15:35.004Z,5.08
2018-09-29T06:16:34.980Z,5.21
2018-09-29T06:17:34.968Z,5.18
2018-09-29T06:18:34.957Z,5.29
2018-09-29T06:19:34.948Z,5.23
2018-09-29T06:20:35.328Z,5.25
2018-09-29T06:21:34.929Z,5.26
2018-09-29T06:22:34.913Z,5.33
2018-09-29T06:23:34.907Z,5.32
2018-09-29T06:24:34.893Z,5.48
2018-09-29T06:25:34.883Z,5.46
2018-09-29T06:26:34.882Z,5.43
2018-09-29T06:27:34.859Z,5.50
2018-09-29T06:28:34.855Z,5.46
2018-09-29T06:29:34.835Z,5.46
2018-09-29T06:30:34.824Z,5.51
2018-09-29T06:31:34.830Z,5.56
2018-09-29T06:32:34.803Z,5.64
2018-09-29T06:33:34.792Z,5.61
2018-09-29T06:34:34.788Z,5.64
2018-09-29T06:35:34.767Z,5.59
2018-09-29T06:36:34.774Z,5.64
2018-09-29T06:37:37.446Z,5.68
2018-09-29T06:38:34.734Z,5.76
2018-09-29T06:39:34.846Z,5.80
2018-09-29T06:40:41.774Z,5.71
2018-09-29T06:41:34.723Z,5.68
2018-09-29T06:42:34.691Z,5.62
2018-09-29T06:43:34.679Z,5.65
2018-09-29T06:44:34.671Z,5.64
2018-09-29T06:45:34.659Z,5.61
2018-09-29T06:46:41.697Z,5.62
2018-09-29T06:47:34.649Z,5.72
2018-09-29T06:48:34.624Z,5.80
2018-09-29T06:49:34.615Z,5.79
2018-09-29T06:50:34.636Z,5.84
2018-09-29T06:51:34.655Z,5.97
2018-09-29T06:52:34.608Z,6.02
2018-09-29T06:53:36.536Z,6.08
2018-09-29T06:54:34.618Z,6.12
2018-09-29T06:55:34.545Z,6.14
2018-09-29T06:56:34.555Z,6.14
2018-09-29T06:57:34.552Z,6.27
2018-09-29T06:58:34.528Z,6.11
2018-09-29T06:59:34.501Z,6.26
2018-09-29T07:00:34.493Z,6.16
2018-09-29T07:01:34.503Z,6.17
2018-09-29T07:02:34.481Z,6.26
2018-09-29T07:03:34.456Z,6.22
2018-09-29T07:04:34.469Z,6.20
2018-09-29T07:05:34.434Z,6.20
2018-09-29T07:06:34.424Z,6.33
2018-09-29T07:07:34.430Z,6.24
2018-09-29T07:08:34.400Z,6.33
2018-09-29T07:09:34.389Z,6.35
2018-09-29T07:10:34.390Z,6.33
2018-09-29T07:11:34.368Z,6.51
2018-09-29T07:12:34.369Z,6.49
2018-09-29T07:13:34.345Z,6.62
2018-09-29T07:14:34.334Z,6.60
2018-09-29T07:15:34.328Z,6.77
2018-09-29T07:16:34.317Z,6.79
2018-09-29T07:17:34.339Z,6.78
2018-09-29T07:18:34.288Z,6.79
2018-09-29T07:19:34.283Z,6.88
2018-09-29T07:20:34.267Z,6.88
2018-09-29T07:21:34.330Z,7.00
2018-09-29T07:22:34.271Z,7.03
2018-09-29T07:23:34.236Z,7.05
2018-09-29T07:24:34.263Z,7.10
2018-09-29T07:25:34.268Z,7.14
2018-09-29T07:26:34.233Z,7.05
2018-09-29T07:27:34.260Z,7.17
2018-09-29T07:28:34.242Z,7.32
2018-09-29T07:29:34.199Z,7.36
2018-09-29T07:30:34.196Z,7.38
2018-09-29T07:31:34.185Z,7.35
2018-09-29T07:32:34.200Z,7.43
2018-09-29T07:33:34.139Z,7.39
2018-09-29T07:34:34.147Z,7.36
2018-09-29T07:35:34.100Z,7.36
2018-09-29T07:36:34.098Z,7.51
2018-09-29T07:37:34.083Z,7.53
2018-09-29T07:38:34.085Z,7.57
2018-09-29T07:39:34.057Z,7.66
2018-09-29T07:40:34.051Z,7.58
2018-09-29T07:41:34.033Z,7.61
2018-09-29T07:42:34.043Z,7.67
2018-09-29T07:43:34.024Z,7.67
2018-09-29T07:44:34.017Z,7.76
2018-09-29T07:45:33.987Z,7.77
2018-09-29T07:46:41.540Z,7.83
2018-09-29T07:47:33.966Z,7.85
2018-09-29T07:48:33.975Z,7.93
2018-09-29T07:49:48.548Z,7.83
2018-09-29T07:59:08.037Z,8.13
2018-09-29T08:03:23.646Z,8.19
2018-09-29T08:05:25.754Z,8.15
2018-09-29T08:10:30.198Z,8.28
2018-09-29T08:14:23.302Z,8.44
2018-09-29T13:43:12.298Z,19.63
2018-09-29T13:44:12.257Z,19.70
2018-09-29T13:45:12.208Z,19.77
2018-09-29T13:46:12.201Z,19.73
2018-09-29T13:47:12.185Z,19.89
2018-09-29T13:48:12.205Z,19.95
2018-09-29T13:49:12.165Z,20.04
2018-09-29T13:50:12.156Z,20.03
2018-09-29T13:51:12.146Z,19.89
2018-09-29T13:52:12.133Z,19.73
2018-09-29T13:53:12.168Z,19.66
2018-09-29T13:54:12.114Z,19.29
2018-09-29T13:55:12.104Z,19.41
2018-09-29T13:56:12.097Z,19.44
2018-09-29T13:57:12.082Z,19.39
2018-09-29T13:58:12.087Z,19.16
2018-09-29T13:59:12.061Z,19.29
2018-09-29T14:00:12.053Z,19.08
2018-09-29T14:01:12.040Z,19.22
2018-09-29T14:02:12.048Z,19.49
2018-09-29T14:03:12.045Z,19.56
2018-09-29T14:04:12.010Z,19.58
2018-09-29T14:05:11.997Z,19.39
2018-09-29T14:06:11.984Z,19.30
2018-09-29T14:07:11.981Z,19.31
2018-09-29T14:08:11.995Z,19.37
2018-09-29T14:09:11.951Z,20.10
2018-09-29T14:10:11.945Z,20.77
2018-09-29T14:11:11.930Z,21.80
2018-09-29T14:12:11.923Z,22.66
2018-09-29T14:13:11.909Z,23.21
2018-09-29T14:14:11.914Z,23.73
2018-09-29T14:15:11.888Z,23.08
2018-09-29T14:16:11.879Z,23.06
2018-09-29T14:17:11.873Z,23.31
2018-09-29T14:31:18.915Z,16.86
2018-09-29T14:32:18.898Z,16.75
2018-09-29T14:33:18.884Z,16.56
2018-09-29T14:34:18.888Z,16.53
2018-09-29T14:35:18.859Z,16.42
2018-09-29T14:36:18.864Z,16.35
2018-09-29T14:37:18.890Z,16.20
2018-09-29T14:38:18.924Z,15.98
2018-09-29T14:39:18.924Z,15.97
2018-09-29T14:40:18.822Z,15.97
2018-09-29T14:41:18.841Z,15.90
2018-09-29T14:42:18.943Z,15.88
2018-09-29T14:43:18.828Z,15.77
2018-09-29T14:44:18.791Z,15.75
2018-09-29T14:45:18.750Z,15.76
2018-09-29T14:46:18.740Z,15.75
2018-09-29T14:47:18.728Z,15.73
2018-09-29T14:48:18.728Z,15.83
2018-09-29T14:49:18.703Z,15.76
2018-09-29T14:50:18.709Z,15.75
2018-09-29T14:51:18.681Z,15.65
2018-09-29T14:52:18.674Z,15.59
2018-09-29T14:53:18.661Z,15.49
2018-09-29T14:54:18.745Z,15.49
2018-09-29T14:55:18.654Z,15.47
2018-09-29T14:56:18.623Z,15.27
2018-09-29T14:57:18.624Z,15.44
2018-09-29T14:58:18.603Z,15.40
2018-09-29T14:59:18.592Z,15.33
2018-09-29T15:00:18.595Z,15.39
2018-09-29T15:01:18.569Z,15.47
2018-09-29T15:02:18.558Z,15.46
2018-09-29T15:03:18.546Z,15.46
2018-09-29T15:04:18.593Z,15.54
2018-09-29T15:05:18.547Z,15.37
2018-09-29T15:06:18.510Z,15.43
2018-09-29T15:07:18.500Z,15.31
2018-09-29T15:08:18.493Z,15.33
2018-09-29T15:09:18.478Z,15.28
2018-09-29T15:10:18.646Z,15.24
2018-09-29T15:11:18.477Z,15.21
2018-09-29T15:12:18.446Z,15.24
2018-09-29T15:13:18.430Z,15.29
2018-09-29T15:14:18.421Z,15.25
2018-09-29T15:15:18.407Z,15.27
2018-09-29T15:16:18.412Z,15.29
2018-09-29T15:17:18.388Z,15.22
2018-09-29T15:18:18.376Z,15.33
2018-09-29T15:19:18.379Z,15.31
2018-09-29T15:20:18.392Z,15.31
2018-09-29T15:21:18.363Z,15.33
2018-09-29T15:22:18.330Z,15.19
2018-09-29T15:23:18.316Z,15.15
2018-09-29T15:24:18.312Z,15.25
2018-09-29T15:25:18.294Z,15.10
2018-09-29T15:26:18.296Z,15.04
2018-09-29T15:27:18.273Z,15.10
2018-09-29T15:28:18.263Z,14.91
2018-09-29T15:29:18.254Z,15.00
2018-09-29T15:30:18.237Z,14.92
2018-09-29T15:31:18.243Z,14.99
2018-09-29T15:32:18.222Z,14.99
2018-09-29T15:33:18.204Z,15.03
2018-09-29T15:34:18.193Z,14.99
2018-09-29T15:35:18.183Z,14.88
2018-09-29T15:36:18.197Z,14.86
2018-09-29T15:37:18.165Z,14.91
2018-09-29T15:38:18.153Z,14.92
2018-09-29T15:39:18.137Z,14.92
2018-09-29T15:40:18.127Z,15.03
2018-09-29T15:41:18.115Z,14.86
2018-09-29T15:42:18.149Z,14.82
2018-09-29T15:43:18.094Z,14.91
2018-09-29T15:44:18.082Z,14.86
2018-09-29T15:45:18.071Z,14.88
2018-09-29T15:46:18.059Z,14.89
2018-09-29T15:47:18.061Z,14.85
2018-09-29T15:48:18.037Z,14.84
2018-09-29T15:49:18.029Z,14.86
2018-09-29T15:50:18.015Z,14.85
2018-09-29T15:51:18.002Z,14.86
2018-09-29T15:52:18.008Z,14.82
2018-09-29T15:53:17.980Z,14.78
2018-09-29T15:54:17.968Z,14.79
2018-09-29T15:55:17.970Z,14.79
2018-09-29T15:56:17.949Z,14.77
2018-09-29T15:57:17.949Z,14.72
2018-09-29T15:58:17.924Z,14.79
2018-09-29T15:59:17.914Z,14.78
2018-09-29T16:00:17.901Z,14.72
2018-09-29T16:01:17.891Z,14.70
2018-09-29T16:02:18.324Z,14.69
2018-09-29T16:03:17.868Z,14.59
2018-09-29T16:04:17.858Z,14.69
2018-09-29T16:05:17.849Z,14.68
2018-09-29T16:06:17.835Z,14.62
2018-09-29T16:07:17.827Z,14.66
2018-09-29T16:08:17.825Z,14.53
2018-09-29T16:09:17.803Z,14.58
2018-09-29T16:10:17.788Z,14.53
2018-09-29T16:11:17.782Z,14.53
2018-09-29T16:12:17.767Z,14.54
2018-09-29T16:13:17.768Z,14.54
2018-09-29T16:14:17.746Z,14.50
2018-09-29T16:15:17.734Z,14.45
2018-09-29T16:16:17.722Z,14.43
2018-09-29T16:17:17.717Z,14.29
2018-09-29T16:18:17.716Z,14.32
2018-09-29T16:19:17.690Z,14.26
2018-09-29T16:20:17.675Z,14.17
2018-09-29T16:21:17.663Z,14.10
2018-09-29T16:22:17.658Z,14.10
2018-09-29T16:23:17.661Z,14.11
2018-09-29T16:24:17.631Z,14.05
2018-09-29T16:25:17.622Z,14.08
2018-09-29T16:26:17.615Z,13.96
2018-09-29T16:27:17.600Z,14.07
2018-09-29T16:28:17.598Z,13.97
2018-09-29T16:29:17.572Z,13.83
2018-09-29T16:30:17.561Z,13.83
2018-09-29T16:31:17.553Z,13.78
2018-09-29T16:32:17.570Z,13.71
2018-09-29T16:33:17.592Z,13.75
2018-09-29T16:34:17.520Z,13.67
2018-09-29T16:35:17.518Z,13.68
2018-09-29T16:36:17.520Z,13.62
2018-09-29T16:37:17.480Z,13.52
2018-09-29T16:38:17.533Z,13.53
2018-09-29T16:39:17.477Z,13.47
2018-09-29T16:40:17.449Z,13.37
2018-09-29T16:41:17.447Z,13.52
2018-09-29T16:42:17.426Z,13.41
2018-09-29T16:43:17.437Z,13.37
2018-09-29T16:44:17.418Z,13.37
2018-09-29T16:45:17.392Z,13.25
2018-09-29T16:46:17.380Z,13.22
2018-09-29T16:47:17.370Z,13.16
2018-09-29T16:48:17.357Z,13.03
2018-09-29T16:49:17.362Z,12.95
2018-09-29T16:50:17.335Z,12.86
2018-09-29T16:51:17.323Z,12.80
2018-09-29T16:52:17.312Z,12.85
2018-09-29T16:53:17.308Z,12.72
2018-09-29T16:54:17.307Z,12.68
2018-09-29T16:55:17.285Z,12.72
2018-09-29T16:56:17.266Z,12.58
2018-09-29T16:57:17.257Z,12.53
2018-09-29T16:58:17.245Z,12.49
2018-09-29T16:59:17.252Z,12.45
2018-09-29T17:00:17.236Z,12.39
2018-09-29T17:01:17.211Z,12.35
2018-09-29T17:02:17.200Z,12.29
2018-09-29T17:03:17.191Z,12.21
2018-09-29T17:04:17.280Z,12.13
2018-09-29T17:05:17.166Z,12.17
2018-09-29T17:06:17.155Z,12.03
2018-09-29T17:07:17.143Z,12.02
2018-09-29T17:08:17.132Z,12.12
2018-09-29T17:09:17.146Z,12.03
2018-09-29T17:10:17.111Z,11.94
2018-09-29T17:11:17.100Z,11.90
2018-09-29T17:12:17.087Z,11.81
2018-09-29T17:13:17.081Z,11.77
2018-09-29T17:14:17.063Z,11.73
2018-09-29T17:15:17.071Z,11.62
2018-09-29T17:16:17.047Z,11.63
2018-09-29T17:17:17.029Z,11.59
2018-09-29T17:18:17.015Z,11.52
2018-09-29T17:19:17.010Z,11.54
2018-09-29T17:20:17.016Z,11.50
2018-09-29T17:21:16.986Z,11.43
2018-09-29T17:22:16.975Z,11.44
2018-09-29T17:23:16.962Z,11.40
2018-09-29T17:24:16.949Z,11.30
2018-09-29T17:25:17.000Z,11.33
2018-09-29T17:26:16.930Z,11.35
2018-09-29T17:27:16.923Z,11.19
2018-09-29T17:28:16.920Z,11.26
2018-09-29T17:29:16.896Z,11.26
2018-09-29T17:30:16.883Z,11.11
2018-09-29T17:31:16.886Z,11.14
2018-09-29T17:32:16.864Z,11.14
2018-09-29T17:33:16.852Z,11.11
2018-09-29T17:34:16.841Z,11.00
2018-09-29T17:35:16.825Z,11.08
2018-09-29T17:36:16.827Z,11.05
2018-09-29T17:37:16.806Z,11.04
2018-09-29T17:38:16.792Z,10.97
2018-09-29T17:39:16.779Z,10.96
2018-09-29T17:40:16.768Z,10.89
2018-09-29T17:41:16.774Z,10.84
2018-09-29T17:42:16.749Z,10.81
2018-09-29T17:43:16.733Z,10.81
2018-09-29T17:44:16.723Z,10.72
2018-09-29T17:45:16.713Z,10.74
2018-09-29T17:46:16.720Z,10.67
2018-09-29T17:47:16.687Z,10.64
2018-09-29T17:48:16.677Z,10.61
2018-09-29T17:49:16.673Z,10.63
2018-09-29T17:50:16.658Z,10.63
2018-09-29T17:51:16.661Z,10.54
2018-09-29T17:52:16.638Z,10.51
2018-09-29T17:53:16.621Z,10.59
2018-09-29T17:54:16.613Z,10.42
2018-09-29T17:55:16.598Z,10.41
2018-09-29T17:56:16.606Z,10.44
2018-09-29T17:57:16.592Z,10.42
2018-09-29T17:58:16.566Z,10.35
2018-09-29T17:59:16.555Z,10.42
2018-09-29T18:00:16.542Z,10.34
2018-09-29T18:01:16.560Z,10.25
2018-09-29T18:02:16.538Z,10.25
2018-09-29T18:03:16.512Z,10.20
2018-09-29T18:04:16.547Z,10.28
2018-09-29T18:05:16.484Z,10.25
2018-09-29T18:06:16.477Z,10.31
2018-09-29T18:07:16.473Z,10.16
2018-09-29T18:08:16.454Z,10.26
2018-09-29T18:09:16.443Z,10.20
2018-09-29T18:10:16.434Z,10.15
2018-09-29T18:11:16.416Z,10.16
2018-09-29T18:12:16.433Z,10.12
2018-09-29T18:13:16.399Z,10.13
2018-09-29T18:14:16.384Z,10.07
2018-09-29T18:15:16.371Z,9.98
2018-09-29T18:16:16.362Z,10.01
2018-09-29T18:17:16.364Z,9.98
2018-09-29T18:18:16.338Z,9.91
2018-09-29T18:19:16.334Z,9.95
2018-09-29T18:20:16.324Z,9.87
2018-09-29T18:21:16.312Z,9.87
2018-09-29T18:22:16.330Z,9.77
2018-09-29T18:23:16.287Z,9.80
2018-09-29T18:24:16.271Z,9.82
2018-09-29T18:25:16.259Z,9.86
2018-09-29T18:26:16.252Z,9.80
2018-09-29T18:27:16.243Z,9.82
2018-09-29T18:28:16.250Z,9.80
2018-09-29T18:29:16.223Z,9.84
2018-09-29T18:30:16.205Z,9.80
2018-09-29T18:31:16.203Z,9.74
2018-09-29T18:32:16.198Z,9.79
2018-09-29T18:33:16.188Z,9.76
2018-09-29T18:34:16.160Z,9.79
2018-09-29T18:35:16.151Z,9.79
2018-09-29T18:36:16.212Z,9.64
2018-09-29T18:37:16.193Z,9.68
2018-09-29T18:38:16.130Z,9.64
2018-09-29T18:39:16.109Z,9.55
2018-09-29T18:40:16.094Z,9.48
2018-09-29T18:41:16.087Z,9.51
2018-09-29T18:42:16.066Z,9.48
2018-09-29T18:43:16.076Z,9.43
2018-09-29T18:44:16.054Z,9.40
2018-09-29T18:45:16.039Z,9.37
2018-09-29T18:46:16.025Z,9.37
2018-09-29T18:47:16.016Z,9.31
2018-09-29T18:48:16.020Z,9.37
2018-09-29T18:49:15.997Z,9.31
2018-09-29T18:50:15.981Z,9.28
2018-09-29T18:51:15.969Z,9.26
2018-09-29T18:52:15.957Z,9.26
2018-09-29T18:53:15.964Z,9.25
2018-09-29T18:54:15.944Z,9.29
2018-09-29T18:55:15.926Z,9.26
2018-09-29T18:56:15.930Z,9.25
2018-09-29T18:57:15.943Z,9.18
2018-09-29T18:58:15.923Z,9.32
2018-09-29T18:59:15.880Z,9.18
2018-09-29T19:00:15.868Z,9.18
2018-09-29T19:01:15.857Z,9.18
2018-09-29T19:02:15.850Z,9.25
2018-09-29T19:03:15.835Z,9.22
2018-09-29T19:04:15.873Z,9.11
2018-09-29T19:05:15.812Z,9.06
2018-09-29T19:06:15.801Z,9.04
2018-09-29T19:07:15.792Z,9.10
2018-09-29T19:08:15.777Z,9.08
2018-09-29T19:09:15.781Z,9.08
2018-09-29T19:10:15.757Z,9.08